createdAt,value
2018-09-10T00:02:09.080Z,66.10
2018-09-10T00:04:38.506Z,67.30
2018-09-10T00:07:07.330Z,66.90
2018-09-10T00:09:36.562Z,66.90
2018-09-10T00:12:06.956Z,67.80
2018-09-10T00:14:36.161Z,68.00
2018-09-10T00:17:08.118Z,67.20
2018-09-10T00:19:41.383Z,68.00
2018-09-10T00:22:11.156Z,68.00
2018-09-10T00:24:39.941Z,67.20
2018-09-10T00:27:08.782Z,68.10
2018-09-10T00:29:37.714Z,68.40
2018-09-10T00:32:07.076Z,68.80
2018-09-10T00:34:36.983Z,69.90
2018-09-10T00:37:05.688Z,70.30
2018-09-10T00:39:34.497Z,70.30
2018-09-10T00:42:03.964Z,69.70
2018-09-10T00:44:33.462Z,71.00
2018-09-10T00:47:03.671Z,70.90
2018-09-10T00:49:34.021Z,70.90
2018-09-10T00:52:02.889Z,70.50
2018-09-10T00:54:31.805Z,72.00
2018-09-10T00:57:00.788Z,72.10
2018-09-10T00:59:29.538Z,71.50
2018-09-10T01:01:58.426Z,72.20
2018-09-10T01:04:27.165Z,72.00
2018-09-10T01:06:56.828Z,72.60
2018-09-10T01:09:25.675Z,72.20
2018-09-10T01:11:54.696Z,72.80
2018-09-10T01:14:24.387Z,73.40
2018-09-10T01:16:53.272Z,72.70
2018-09-10T01:21:58.413Z,73.80
2018-09-10T01:24:27.840Z,74.70
2018-09-10T01:26:58.980Z,74.20
2018-09-10T01:29:28.025Z,74.90
2018-09-10T01:31:58.700Z,75.90
2018-09-10T01:34:34.393Z,75.30
2018-09-10T01:37:05.706Z,74.40
2018-09-10T01:39:36.562Z,74.40
2018-09-10T01:42:05.838Z,74.40
2018-09-10T01:44:35.520Z,74.40
2018-09-10T01:47:04.907Z,74.30
2018-09-10T01:49:35.705Z,74.50
2018-09-10T01:52:06.960Z,75.20
2018-09-10T01:54:36.386Z,75.10
2018-09-10T01:59:45.694Z,75.00
2018-09-10T02:02:16.502Z,75.90
2018-09-10T02:04:45.436Z,76.00
2018-09-10T02:07:15.146Z,76.20
2018-09-10T02:09:44.923Z,75.70
2018-09-10T02:12:20.849Z,75.70
2018-09-10T02:14:49.339Z,75.70
2018-09-10T02:17:18.202Z,75.00
2018-09-10T02:19:47.172Z,75.80
2018-09-10T02:22:17.346Z,75.90
2018-09-10T02:24:46.546Z,75.70
2018-09-10T02:27:15.468Z,74.80
2018-09-10T02:29:44.232Z,75.50
2018-09-10T02:32:13.302Z,76.60
2018-09-10T02:34:42.063Z,76.90
2018-09-10T02:37:11.559Z,76.70
2018-09-10T02:39:40.373Z,75.90
2018-09-10T02:42:10.123Z,76.10
2018-09-10T02:44:39.253Z,76.10
2018-09-10T02:47:09.810Z,76.00
2018-09-10T02:49:38.623Z,75.10
2018-09-10T02:52:08.110Z,76.10
2018-09-10T02:54:38.102Z,76.00
2018-09-10T02:57:08.164Z,75.80
2018-09-10T02:59:36.869Z,75.00
2018-09-10T03:02:06.654Z,75.80
2018-09-10T03:04:35.603Z,76.80
2018-09-10T03:07:05.292Z,76.70
2018-09-10T03:09:34.173Z,76.30
2018-09-10T03:12:04.117Z,76.90
2018-09-10T03:14:33.292Z,77.50
2018-09-10T03:17:02.127Z,77.70
2018-09-10T03:22:18.720Z,78.80
2018-09-10T03:24:48.700Z,78.20
2018-09-10T03:27:18.366Z,78.90
2018-09-10T03:29:48.605Z,80.20
2018-09-10T03:32:17.771Z,79.20
2018-09-10T03:34:47.153Z,79.00
2018-09-10T03:37:18.879Z,79.20
2018-09-10T03:39:49.796Z,79.00
2018-09-10T03:42:19.131Z,77.90
2018-09-10T03:44:48.587Z,79.00
2018-09-10T03:47:18.203Z,79.30
2018-09-10T03:49:48.664Z,79.20
2018-09-10T03:52:18.247Z,79.00
2018-09-10T03:54:47.353Z,79.00
2018-09-10T03:57:16.986Z,79.70
2018-09-10T03:59:46.012Z,79.00
2018-09-10T04:02:16.152Z,79.40
2018-09-10T04:04:46.192Z,79.30
2018-09-10T04:07:15.060Z,78.90
2018-09-10T04:09:44.862Z,79.40
2018-09-10T04:12:14.788Z,78.70
2018-09-10T04:14:44.410Z,79.60
2018-09-10T04:17:18.726Z,81.00
2018-09-10T04:19:47.622Z,79.60
2018-09-10T04:22:17.082Z,79.50
2018-09-10T04:24:46.877Z,79.90
2018-09-10T04:27:18.348Z,79.60
2018-09-10T04:29:48.024Z,80.00
2018-09-10T04:32:17.866Z,80.30
2018-09-10T04:34:46.753Z,79.60
2018-09-10T04:37:15.657Z,80.20
2018-09-10T04:39:46.729Z,79.40
2018-09-10T04:42:18.514Z,79.00
2018-09-10T04:44:47.844Z,80.00
2018-09-10T04:47:16.962Z,79.70
2018-09-10T04:49:47.059Z,79.90
2018-09-10T04:52:16.018Z,79.90
2018-09-10T04:54:45.314Z,79.90
2018-09-10T04:57:15.938Z,79.90
2018-09-10T04:59:46.074Z,79.90
2018-09-10T05:02:14.666Z,80.00
2018-09-10T05:04:43.468Z,79.30
2018-09-10T05:07:12.261Z,78.30
2018-09-10T05:09:41.517Z,79.40
2018-09-10T05:12:10.406Z,78.40
2018-09-10T05:14:39.219Z,77.70
2018-09-10T05:19:43.411Z,77.90
2018-09-10T05:22:13.210Z,79.20
2018-09-10T05:24:41.938Z,79.50
2018-09-10T05:27:12.169Z,79.70
2018-09-10T05:29:41.645Z,79.50
2018-09-10T05:32:15.612Z,80.00
2018-09-10T05:34:44.570Z,79.10
2018-09-10T05:37:15.449Z,78.70
2018-09-10T05:39:44.267Z,78.70
2018-09-10T05:42:12.995Z,77.30
2018-09-10T05:44:41.869Z,78.10
2018-09-10T05:47:11.019Z,76.60
2018-09-10T05:49:39.883Z,76.40
2018-09-10T05:52:09.299Z,76.70
2018-09-10T05:54:39.059Z,77.80
2018-09-10T05:57:07.821Z,76.90
2018-09-10T05:59:36.642Z,77.20
2018-09-10T06:04:45.815Z,76.90
2018-09-10T06:07:17.002Z,77.60
2018-09-10T06:09:45.849Z,78.30
2018-09-10T06:12:15.571Z,78.30
2018-09-10T06:14:45.182Z,78.60
2018-09-10T06:17:14.764Z,77.60
2018-09-10T06:19:43.433Z,76.50
2018-09-10T06:22:12.229Z,77.50
2018-09-10T06:24:40.923Z,76.70
2018-09-10T06:27:09.638Z,76.30
2018-09-10T06:29:38.312Z,75.90
2018-09-10T06:32:10.943Z,75.00
2018-09-10T06:34:39.941Z,75.80
2018-09-10T06:37:11.770Z,75.30
2018-09-10T06:39:40.604Z,74.90
2018-09-10T06:42:09.360Z,75.00
2018-09-10T06:44:39.256Z,74.50
2018-09-10T06:47:09.645Z,74.60
2018-09-10T06:49:38.696Z,74.10
2018-09-10T06:52:08.238Z,74.10
2018-09-10T06:54:37.133Z,73.10
2018-09-10T06:57:06.152Z,73.40
2018-09-10T06:59:37.883Z,73.10
2018-09-10T07:02:08.732Z,73.40
2018-09-10T07:04:39.287Z,74.30
2018-09-10T07:07:09.251Z,73.30
2018-09-10T07:09:38.798Z,73.80
2018-09-10T07:12:08.617Z,74.00
2018-09-10T07:14:40.492Z,75.20
2018-09-10T07:17:09.602Z,74.30
2018-09-10T07:19:40.048Z,72.90
2018-09-10T07:22:08.985Z,73.40
2018-09-10T07:24:39.090Z,74.00
2018-09-10T07:27:08.263Z,74.90
2018-09-10T07:29:39.103Z,74.20
2018-09-10T07:32:09.721Z,75.10
2018-09-10T07:34:41.792Z,76.40
2018-09-10T07:37:11.543Z,76.60
2018-09-10T07:42:17.632Z,76.40
2018-09-10T07:44:47.398Z,77.60
2018-09-10T07:47:17.232Z,78.00
2018-09-10T07:49:46.212Z,77.80
2018-09-10T07:52:15.348Z,76.60
2018-09-10T07:54:47.712Z,76.60
2018-09-10T07:57:17.118Z,75.60
2018-09-10T07:59:46.606Z,73.80
2018-09-10T08:02:16.260Z,73.30
2018-09-10T08:04:47.321Z,72.10
2018-09-10T08:07:19.727Z,71.50
2018-09-10T08:09:48.254Z,68.60
2018-09-10T08:12:17.682Z,66.60
2018-09-10T08:14:49.854Z,65.20
2018-09-10T08:17:21.174Z,64.30
2018-09-10T08:19:50.292Z,62.60
2018-09-10T08:22:19.923Z,60.50
2018-09-10T08:24:49.884Z,60.30
2018-09-10T08:27:19.785Z,60.00
2018-09-10T08:29:48.830Z,62.60
2018-09-10T08:32:21.606Z,60.10
2018-09-10T08:34:53.530Z,59.70
2018-09-10T08:37:23.066Z,58.00
2018-09-10T08:39:52.484Z,57.20
2018-09-10T08:42:23.358Z,55.60
2018-09-10T08:44:54.275Z,56.20
2018-09-10T08:47:24.186Z,56.00
2018-09-10T08:49:55.898Z,57.00
2018-09-10T08:52:25.651Z,56.70
2018-09-10T08:54:58.714Z,55.70
2018-09-10T08:57:28.063Z,55.30
2018-09-10T08:59:56.912Z,54.30
2018-09-10T09:02:27.299Z,52.60
2018-09-10T09:04:55.987Z,52.40
2018-09-10T09:07:24.580Z,52.60
2018-09-10T09:09:53.054Z,53.80
2018-09-10T09:12:21.796Z,51.70
2018-09-10T09:14:50.436Z,52.90
2018-09-10T09:17:18.915Z,52.80
2018-09-10T09:19:47.679Z,52.90
2018-09-10T09:22:16.102Z,53.10
2018-09-10T09:24:44.635Z,53.00
2018-09-10T09:27:13.248Z,52.30
2018-09-10T09:29:42.716Z,49.70
2018-09-10T09:32:11.124Z,48.60
2018-09-10T09:34:45.264Z,48.60
2018-09-10T09:37:19.410Z,48.30
2018-09-10T09:39:54.425Z,48.10
2018-09-10T09:42:28.515Z,49.40
2018-09-10T09:45:02.309Z,50.20
2018-09-10T09:47:31.199Z,49.70
2018-09-10T09:49:59.918Z,48.40
2018-09-10T09:52:28.350Z,46.40
2018-09-10T09:54:57.019Z,46.50
2018-09-10T09:57:25.857Z,45.40
2018-09-10T09:59:54.499Z,47.20
2018-09-10T10:02:29.338Z,46.90
2018-09-10T10:04:58.324Z,44.20
2018-09-10T10:07:26.927Z,44.40
2018-09-10T10:09:55.519Z,45.70
2018-09-10T10:12:25.220Z,44.60
2018-09-10T10:14:53.713Z,44.30
2018-09-10T10:17:22.166Z,41.80
2018-09-10T10:19:51.659Z,42.70
2018-09-10T10:22:20.272Z,44.90
2018-09-10T10:24:49.074Z,43.90
2018-09-10T10:27:17.634Z,43.70
2018-09-10T10:29:47.284Z,43.00
2018-09-10T10:32:15.749Z,45.20
2018-09-10T10:34:44.311Z,44.80
2018-09-10T10:37:12.817Z,44.60
2018-09-10T10:39:41.487Z,45.50
2018-09-10T10:42:09.988Z,45.90
2018-09-10T10:44:38.033Z,46.20
2018-09-10T10:47:06.458Z,42.50
2018-09-10T10:49:34.933Z,44.00
2018-09-10T10:52:03.403Z,43.30
2018-09-10T10:54:31.805Z,43.80
2018-09-10T10:57:00.249Z,43.90
2018-09-10T10:59:28.791Z,44.60
2018-09-10T11:01:57.407Z,42.20
2018-09-10T11:04:26.077Z,43.80
2018-09-10T11:06:54.547Z,42.10
2018-09-10T11:09:22.954Z,43.00
2018-09-10T11:11:51.624Z,41.80
2018-09-10T11:14:20.506Z,41.60
2018-09-10T11:16:48.963Z,42.50
2018-09-10T11:19:18.093Z,42.20
2018-09-10T11:21:47.331Z,42.70
2018-09-10T11:24:16.019Z,43.30
2018-09-10T11:26:44.613Z,42.30
2018-09-10T11:29:13.017Z,42.00
2018-09-10T11:31:41.574Z,42.00
2018-09-10T11:34:10.682Z,42.70
2018-09-10T11:36:39.193Z,42.50
2018-09-10T11:39:07.735Z,42.90
2018-09-10T11:41:36.118Z,42.80
2018-09-10T11:44:04.491Z,41.80
2018-09-10T11:46:32.891Z,43.40
2018-09-10T11:49:01.356Z,44.80
2018-09-10T11:51:29.684Z,45.00
2018-09-10T11:53:58.232Z,45.30
2018-09-10T11:56:26.613Z,47.50
2018-09-10T11:58:54.917Z,47.60
2018-09-10T12:01:23.380Z,48.40
2018-09-10T12:03:52.093Z,48.20
2018-09-10T12:06:20.520Z,46.10
2018-09-10T12:08:49.012Z,46.80
2018-09-10T12:11:17.408Z,46.30
2018-09-10T12:13:45.849Z,44.60
2018-09-10T12:16:14.397Z,44.50
2018-09-10T12:18:42.760Z,44.90
2018-09-10T12:21:11.164Z,43.60
2018-09-10T12:23:39.491Z,40.50
2018-09-10T12:26:07.906Z,40.70
2018-09-10T12:28:36.263Z,41.20
2018-09-10T12:31:04.727Z,41.00
2018-09-10T12:33:33.187Z,41.50
2018-09-10T12:36:01.736Z,42.00
2018-09-10T12:38:30.116Z,42.40
2018-09-10T12:40:58.403Z,41.80
2018-09-10T12:43:27.239Z,42.40
2018-09-10T12:45:55.576Z,42.10
2018-09-10T12:48:24.064Z,42.20
2018-09-10T12:50:52.449Z,42.00
2018-09-10T12:53:21.077Z,43.10
2018-09-10T12:55:49.500Z,45.10
2018-09-10T12:58:17.906Z,43.10
2018-09-10T13:00:46.387Z,42.10
2018-09-10T13:03:14.838Z,43.20
2018-09-10T13:05:43.544Z,42.30
2018-09-10T13:08:12.039Z,42.10
2018-09-10T13:10:40.775Z,41.60
2018-09-10T13:13:09.036Z,42.10
2018-09-10T13:15:37.620Z,41.50
2018-09-10T13:18:06.163Z,42.80
2018-09-10T13:20:34.596Z,40.40
2018-09-10T13:23:03.007Z,40.10
2018-09-10T13:25:31.387Z,41.00
2018-09-10T13:27:59.844Z,41.80
2018-09-10T13:30:27.922Z,41.30
2018-09-10T13:32:56.323Z,39.90
2018-09-10T13:35:24.742Z,41.50
2018-09-10T13:37:53.177Z,42.60
2018-09-10T13:40:21.733Z,41.20
2018-09-10T13:42:50.342Z,40.30
2018-09-10T13:45:18.700Z,41.30
2018-09-10T13:47:47.093Z,41.10
2018-09-10T13:50:15.589Z,41.40
2018-09-10T13:52:44.208Z,39.50
2018-09-10T13:55:12.779Z,40.40
2018-09-10T13:57:41.152Z,39.80
2018-09-10T14:00:10.022Z,39.80
2018-09-10T14:02:38.481Z,39.10
2018-09-10T14:05:07.149Z,38.90
2018-09-10T14:07:35.555Z,39.10
2018-09-10T14:10:04.067Z,40.30
2018-09-10T14:12:32.631Z,38.90
2018-09-10T14:15:01.225Z,38.90
2018-09-10T14:17:29.589Z,40.10
2018-09-10T14:19:57.993Z,38.90
2018-09-10T14:22:26.480Z,38.90
2018-09-10T14:24:55.164Z,37.50
2018-09-10T14:27:23.621Z,37.70
2018-09-10T14:29:51.960Z,37.00
2018-09-10T14:32:20.575Z,37.30
2018-09-10T14:34:49.252Z,37.10
2018-09-10T14:37:17.585Z,37.80
2018-09-10T14:39:46.115Z,40.00
2018-09-10T14:42:14.569Z,40.20
2018-09-10T14:44:43.191Z,39.50
2018-09-10T14:47:11.806Z,39.80
2018-09-10T14:49:40.242Z,40.00
2018-09-10T14:52:08.835Z,40.10
2018-09-10T14:54:37.230Z,40.60
2018-09-10T14:57:05.621Z,41.50
2018-09-10T14:59:33.833Z,41.00
2018-09-10T15:02:02.355Z,43.30
2018-09-10T15:04:30.791Z,44.80
2018-09-10T15:06:59.152Z,46.10
2018-09-10T15:09:27.564Z,45.80
2018-09-10T15:11:55.965Z,47.60
2018-09-10T15:14:24.449Z,47.10
2018-09-10T15:16:52.852Z,47.90
2018-09-10T15:19:21.333Z,47.70
2018-09-10T15:21:49.738Z,48.40
2018-09-10T15:24:18.571Z,48.90
2018-09-10T15:26:49.386Z,49.70
2018-09-10T15:31:52.581Z,49.00
2018-09-10T15:34:24.326Z,50.40
2018-09-10T15:36:55.872Z,51.00
2018-09-10T15:39:25.474Z,50.40
2018-09-10T15:41:54.911Z,50.60
2018-09-10T15:44:23.641Z,50.90
2018-09-10T15:46:52.859Z,51.10
2018-09-10T15:49:21.713Z,51.00
2018-09-10T15:51:51.444Z,50.50
2018-09-10T15:54:20.266Z,50.40
2018-09-10T15:56:48.981Z,49.00
2018-09-10T15:59:17.733Z,49.00
2018-09-10T16:01:46.478Z,50.50
2018-09-10T16:04:15.295Z,51.40
2018-09-10T16:06:44.107Z,50.70
2018-09-10T16:09:13.016Z,50.90
2018-09-10T16:11:42.926Z,51.90
2018-09-10T16:14:11.984Z,52.20
2018-09-10T16:16:41.758Z,51.90
2018-09-10T16:19:10.760Z,52.70
2018-09-10T16:21:39.392Z,52.60
2018-09-10T16:24:08.682Z,52.40
2018-09-10T16:26:38.127Z,53.40
2018-09-10T16:29:07.104Z,54.80
2018-09-10T16:31:37.270Z,54.70
2018-09-10T16:34:07.239Z,55.30
2018-09-10T16:36:37.947Z,55.00
2018-09-10T16:39:10.811Z,55.00
2018-09-10T16:41:40.621Z,55.30
2018-09-10T16:44:09.694Z,56.20
2018-09-10T16:46:39.128Z,56.50
2018-09-10T16:49:09.313Z,56.60
2018-09-10T16:51:38.909Z,54.80
2018-09-10T16:54:09.565Z,56.40
2018-09-10T16:56:39.103Z,56.70
2018-09-10T16:59:08.650Z,54.40
2018-09-10T17:01:43.192Z,55.90
2018-09-10T17:06:55.475Z,54.90
2018-09-10T17:09:27.960Z,55.70
2018-09-10T17:11:56.986Z,55.30
2018-09-10T17:14:26.419Z,55.80
2018-09-10T17:16:55.982Z,55.00
2018-09-10T17:19:25.071Z,55.60
2018-09-10T17:21:53.744Z,54.50
2018-09-10T17:24:22.716Z,54.30
2018-09-10T17:26:51.555Z,54.60
2018-09-10T17:29:20.299Z,54.90
2018-09-10T17:31:48.995Z,55.30
2018-09-10T17:34:17.782Z,55.00
2018-09-10T17:36:46.800Z,54.80
2018-09-10T17:39:17.761Z,54.90
2018-09-10T17:41:46.299Z,54.20
2018-09-10T17:44:14.876Z,55.30
2018-09-10T17:49:18.616Z,56.10
2018-09-10T17:51:48.758Z,56.30
2018-09-10T17:54:17.226Z,56.40
2018-09-10T17:56:45.704Z,57.10
2018-09-10T17:59:14.335Z,56.40
2018-09-10T18:01:43.481Z,56.90
2018-09-10T18:04:12.678Z,56.50
2018-09-10T18:06:41.691Z,56.70
2018-09-10T18:09:11.465Z,56.20
2018-09-10T18:11:40.261Z,56.70
2018-09-10T18:14:10.464Z,55.90
2018-09-10T18:16:39.183Z,54.60
2018-09-10T18:19:07.950Z,55.70
2018-09-10T18:21:36.942Z,57.30
2018-09-10T18:24:06.456Z,56.50
2018-09-10T18:26:37.019Z,55.90
2018-09-10T18:29:06.013Z,55.80
2018-09-10T18:31:35.472Z,56.60
2018-09-10T18:34:04.335Z,57.20
2018-09-10T18:36:35.733Z,57.80
2018-09-10T18:39:07.668Z,58.00
2018-09-10T18:41:36.835Z,57.00
2018-09-10T18:44:05.940Z,57.40
2018-09-10T18:46:34.720Z,57.50
2018-09-10T18:49:03.454Z,58.40
2018-09-10T18:51:32.918Z,58.50
2018-09-10T18:54:01.910Z,58.70
2018-09-10T18:56:31.349Z,59.60
2018-09-10T18:59:00.406Z,59.10
2018-09-10T19:01:29.073Z,59.20
2018-09-10T19:03:58.431Z,59.10
2018-09-10T19:06:27.353Z,60.00
2018-09-10T19:08:56.421Z,60.00
2018-09-10T19:11:25.218Z,60.50
2018-09-10T19:13:53.710Z,60.60
2018-09-10T19:16:22.249Z,60.70
2018-09-10T19:18:51.017Z,61.70
2018-09-10T19:21:19.558Z,61.50
2018-09-10T19:23:50.325Z,61.60
2018-09-10T19:26:19.495Z,63.00
2018-09-10T19:28:48.646Z,61.90
2018-09-10T19:31:17.271Z,62.40
2018-09-10T19:33:46.753Z,62.40
2018-09-10T19:36:15.835Z,62.60
2018-09-10T19:38:46.189Z,63.60
2018-09-10T19:41:16.117Z,63.80
2018-09-10T19:43:45.636Z,62.90
2018-09-10T19:46:14.519Z,63.10
2018-09-10T19:48:44.145Z,62.20
2018-09-10T19:51:13.050Z,63.20
2018-09-10T19:53:42.466Z,63.40
2018-09-10T19:56:11.909Z,62.80
2018-09-10T19:58:40.995Z,62.90
2018-09-10T20:01:10.001Z,62.60
2018-09-10T20:03:40.229Z,62.70
2018-09-10T20:06:09.495Z,63.90
2018-09-10T20:08:38.071Z,63.70
2018-09-10T20:11:08.545Z,63.40
2018-09-10T20:13:37.428Z,63.30
2018-09-10T20:16:06.181Z,64.10
2018-09-10T20:18:34.855Z,63.70
2018-09-10T20:21:04.614Z,64.00
2018-09-10T20:23:33.985Z,64.30
2018-09-10T20:26:02.472Z,64.10
2018-09-10T20:28:31.342Z,65.00
2018-09-10T20:31:01.131Z,63.90
2018-09-10T20:33:33.893Z,64.50
2018-09-10T20:38:37.250Z,64.50
2018-09-10T20:41:09.291Z,65.00
2018-09-10T20:43:38.247Z,64.70
2018-09-10T20:46:07.196Z,65.20
2018-09-10T20:48:36.717Z,64.90
2018-09-10T20:51:05.478Z,63.90
2018-09-10T20:53:34.058Z,64.00
2018-09-10T20:56:02.919Z,63.20
2018-09-10T20:58:31.515Z,63.40
2018-09-10T21:01:00.227Z,63.00
2018-09-10T21:03:32.346Z,62.90
2018-09-10T21:06:00.839Z,63.30
2018-09-10T21:08:30.265Z,63.40
2018-09-10T21:10:58.945Z,63.60
2018-09-10T21:13:27.464Z,63.70
2018-09-10T21:15:56.567Z,64.20
2018-09-10T21:18:25.396Z,64.00
2018-09-10T21:20:54.081Z,63.90
2018-09-10T21:23:22.988Z,64.50
2018-09-10T21:25:52.343Z,64.10
2018-09-10T21:28:21.355Z,65.30
2018-09-10T21:30:50.645Z,64.50
2018-09-10T21:33:20.379Z,65.10
2018-09-10T21:35:49.099Z,65.50
2018-09-10T21:38:19.281Z,64.60
2018-09-10T21:40:47.875Z,64.80
2018-09-10T21:43:18.615Z,65.10
2018-09-10T21:45:47.281Z,64.30
2018-09-10T21:48:16.461Z,64.70
2018-09-10T21:50:45.165Z,65.00
2018-09-10T21:53:16.827Z,65.60
2018-09-10T21:55:47.375Z,65.10
2018-09-10T21:58:17.115Z,65.50
2018-09-10T22:00:52.013Z,65.00
2018-09-10T22:03:20.925Z,64.40
2018-09-10T22:05:53.976Z,65.80
2018-09-10T22:08:25.138Z,65.20
2018-09-10T22:10:54.034Z,66.00
2018-09-10T22:13:23.658Z,65.10
2018-09-10T22:15:53.479Z,65.00
2018-09-10T22:18:24.605Z,65.80
2018-09-10T22:20:55.150Z,65.90
2018-09-10T22:23:26.454Z,65.80
2018-09-10T22:25:56.434Z,66.20
2018-09-10T22:28:26.024Z,66.00
2018-09-10T22:30:55.644Z,66.40
2018-09-10T22:33:25.105Z,67.20
2018-09-10T22:35:54.704Z,67.50
2018-09-10T22:38:23.713Z,67.20
2018-09-10T22:40:52.483Z,67.60
2018-09-10T22:43:21.484Z,67.10
2018-09-10T22:45:51.367Z,67.00
2018-09-10T22:48:20.079Z,67.50
2018-09-10T22:50:50.472Z,67.20
2018-09-10T22:53:19.105Z,68.20
2018-09-10T22:55:52.250Z,67.80
2018-09-10T23:01:02.480Z,67.20
2018-09-10T23:03:32.301Z,68.80
2018-09-10T23:06:02.045Z,69.00
2018-09-10T23:08:30.951Z,67.90
2018-09-10T23:10:59.725Z,68.20
2018-09-10T23:13:29.414Z,68.50
2018-09-10T23:16:00.906Z,68.60
2018-09-10T23:18:34.045Z,68.70
2018-09-10T23:21:04.971Z,68.30
2018-09-10T23:23:34.152Z,69.30
2018-09-10T23:26:02.874Z,69.20
2018-09-10T23:28:33.618Z,69.00
2018-09-10T23:31:02.218Z,69.50
2018-09-10T23:33:31.383Z,70.00
2018-09-10T23:36:00.449Z,70.20
2018-09-10T23:38:30.116Z,71.20
2018-09-10T23:41:00.077Z,71.10
2018-09-10T23:43:31.309Z,70.60
2018-09-10T23:46:00.649Z,71.50
2018-09-10T23:48:29.429Z,70.80
2018-09-10T23:50:58.702Z,70.80
2018-09-10T23:53:27.692Z,71.50
2018-09-10T23:55:56.689Z,71.10
2018-09-10T23:58:27.167Z,71.00
